Time;durP1;ratioP1;P1;durP2;ratioP2;P2;SDS_P1;SDS_P2;PMS_P1;PMS_P2;Temp;Humidity;BMP_temperature;BMP_pressure;BME280_temperature;BME280_humidity;BME280_pressure;Samples;Min_cycle;Max_cycle;Signal;HPM_P1;HPM_P2
2021/06/13 00:00:43;;;;;;;16.58;7.37;;;;;;;;;;4423477;32;20161;-76
2021/06/13 00:03:09;;;;;;;21.62;8.20;;;;;;;;;;4423037;32;20225;-76
2021/06/13 00:05:34;;;;;;;17.23;7.37;;;;;;;;;;4438715;32;20451;-77
2021/06/13 00:08:00;;;;;;;19.02;7.22;;;;;;;;;;4436978;32;20133;-76
2021/06/13 00:10:25;;;;;;;20.67;8.20;;;;;;;;;;4436751;32;20133;-76
2021/06/13 00:12:50;;;;;;;20.33;7.28;;;;;;;;;;4436854;32;20125;-76
2021/06/13 00:15:18;;;;;;;16.70;7.20;;;;;;;;;;4437334;32;20126;-76
2021/06/13 00:17:43;;;;;;;14.52;6.97;;;;;;;;;;4438171;32;20161;-76
2021/06/13 00:20:10;;;;;;;19.05;7.65;;;;;;;;;;4436647;32;20167;-76
2021/06/13 00:22:35;;;;;;;21.87;7.90;;;;;;;;;;4438188;32;20159;-77
2021/06/13 00:25:00;;;;;;;20.60;7.90;;;;;;;;;;4436992;32;20133;-75
2021/06/13 00:27:26;;;;;;;18.98;7.07;;;;;;;;;;4436776;32;20133;-76
2021/06/13 00:29:51;;;;;;;15.37;7.20;;;;;;;;;;4437059;32;20142;-76
2021/06/13 00:32:16;;;;;;;15.35;6.95;;;;;;;;;;4422811;32;20253;-75
2021/06/13 00:34:41;;;;;;;16.77;7.03;;;;;;;;;;4438325;32;20252;-76
2021/06/13 00:37:06;;;;;;;20.30;7.80;;;;;;;;;;4437849;32;20738;-76
2021/06/13 00:39:31;;;;;;;22.40;7.35;;;;;;;;;;4423080;32;20543;-75
2021/06/13 00:41:57;;;;;;;17.80;7.50;;;;;;;;;;4436561;32;20196;-76
2021/06/13 00:44:22;;;;;;;21.67;8.05;;;;;;;;;;4422612;32;20256;-75
2021/06/13 00:46:47;;;;;;;18.48;7.62;;;;;;;;;;4422295;32;20196;-76
2021/06/13 00:49:12;;;;;;;13.23;6.57;;;;;;;;;;4419492;32;20169;-76
2021/06/13 00:51:37;;;;;;;19.17;7.25;;;;;;;;;;4408483;32;20280;-75
2021/06/13 00:54:02;;;;;;;13.93;7.30;;;;;;;;;;4407388;32;20239;-75
2021/06/13 00:56:28;;;;;;;14.87;6.55;;;;;;;;;;4407532;32;20483;-76
2021/06/13 00:58:53;;;;;;;15.35;6.90;;;;;;;;;;4404461;32;20162;-76
2021/06/13 01:01:18;;;;;;;16.95;6.90;;;;;;;;;;4406190;32;20188;-76
2021/06/13 01:03:45;;;;;;;14.70;6.93;;;;;;;;;;4405731;32;20131;-76
2021/06/13 01:06:11;;;;;;;17.95;7.12;;;;;;;;;;4405840;32;20131;-76
2021/06/13 01:08:39;;;;;;;16.33;7.10;;;;;;;;;;4404909;32;20134;-75
2021/06/13 01:11:09;;;;;;;22.15;7.35;;;;;;;;;;4405532;32;20131;-75
2021/06/13 01:13:47;;;;;;;21.23;7.57;;;;;;;;;;4405639;32;20165;-76
2021/06/13 01:16:19;;;;;;;15.48;6.68;;;;;;;;;;4404412;32;20166;-76
2021/06/13 01:18:48;;;;;;;15.95;6.90;;;;;;;;;;4404165;32;20291;-76
2021/06/13 01:21:15;;;;;;;16.33;6.72;;;;;;;;;;4406092;32;20160;-75
2021/06/13 01:24:13;;;;;;;22.17;7.57;;;;;;;;;;4405295;32;20204;-76
2021/06/13 01:26:50;;;;;;;16.23;6.65;;;;;;;;;;4379810;32;20194;-75
2021/06/13 01:29:18;;;;;;;17.92;6.97;;;;;;;;;;4404808;32;20187;-75
2021/06/13 01:31:48;;;;;;;15.05;6.82;;;;;;;;;;4407343;32;20168;-75
2021/06/13 01:34:16;;;;;;;17.27;7.15;;;;;;;;;;4406165;32;20138;-75
2021/06/13 01:36:41;;;;;;;17.90;7.35;;;;;;;;;;4406572;32;20547;-76
2021/06/13 01:39:11;;;;;;;14.13;6.45;;;;;;;;;;4406695;32;20156;-75
2021/06/13 01:41:37;;;;;;;16.35;6.43;;;;;;;;;;4407035;32;20146;-75
2021/06/13 01:44:02;;;;;;;18.58;6.65;;;;;;;;;;4407445;32;20597;-77
2021/06/13 01:46:31;;;;;;;19.33;6.53;;;;;;;;;;4405284;32;20166;-76
2021/06/13 01:48:56;;;;;;;18.35;6.87;;;;;;;;;;4408251;32;20184;-75
2021/06/13 01:51:23;;;;;;;15.98;6.43;;;;;;;;;;4437633;32;20163;-76
2021/06/13 01:53:49;;;;;;;17.83;7.20;;;;;;;;;;4422056;32;20247;-76
2021/06/13 01:56:15;;;;;;;14.85;6.15;;;;;;;;;;4421739;32;20203;-76
2021/06/13 01:58:42;;;;;;;20.23;7.05;;;;;;;;;;4422378;32;20645;-76
2021/06/13 02:01:08;;;;;;;19.62;7.75;;;;;;;;;;4421585;32;20173;-76
2021/06/13 02:03:35;;;;;;;17.77;7.25;;;;;;;;;;4435949;32;20205;-76
2021/06/13 02:06:01;;;;;;;14.87;6.70;;;;;;;;;;4421432;32;20610;-76
2021/06/13 02:08:26;;;;;;;17.50;7.43;;;;;;;;;;4421503;32;20213;-76
2021/06/13 02:10:52;;;;;;;17.52;7.03;;;;;;;;;;4422467;32;20166;-76
2021/06/13 02:13:17;;;;;;;14.50;6.57;;;;;;;;;;4422456;32;20656;-75
2021/06/13 02:15:44;;;;;;;18.02;7.35;;;;;;;;;;4436160;32;20195;-75
2021/06/13 02:18:11;;;;;;;18.20;6.85;;;;;;;;;;4434664;32;20141;-75
2021/06/13 02:20:37;;;;;;;16.50;6.62;;;;;;;;;;4422340;32;20208;-75
2021/06/13 02:23:03;;;;;;;18.12;7.40;;;;;;;;;;4423747;32;20207;-75
2021/06/13 02:25:28;;;;;;;16.40;7.87;;;;;;;;;;4440377;32;20137;-75
2021/06/13 02:27:58;;;;;;;19.65;7.68;;;;;;;;;;4438006;32;20126;-76
2021/06/13 02:30:24;;;;;;;12.32;6.35;;;;;;;;;;4438207;32;20129;-76
2021/06/13 02:32:50;;;;;;;14.10;6.43;;;;;;;;;;4424224;32;20215;-76
2021/06/13 02:35:15;;;;;;;16.83;7.22;;;;;;;;;;4438575;32;20463;-76
2021/06/13 02:37:42;;;;;;;18.25;6.85;;;;;;;;;;4438437;32;20267;-76
2021/06/13 02:40:09;;;;;;;19.15;7.30;;;;;;;;;;4438328;32;20446;-75
2021/06/13 02:42:34;;;;;;;23.10;7.10;;;;;;;;;;4437558;32;20164;-75
2021/06/13 02:44:59;;;;;;;18.10;6.20;;;;;;;;;;4423776;32;20161;-76
2021/06/13 02:47:24;;;;;;;23.45;7.55;;;;;;;;;;4439443;32;20140;-75
2021/06/13 02:49:50;;;;;;;26.83;7.37;;;;;;;;;;4438799;32;20244;-76
2021/06/13 02:52:22;;;;;;;19.10;7.07;;;;;;;;;;4425060;32;20158;-76
2021/06/13 02:54:48;;;;;;;19.80;7.57;;;;;;;;;;4424452;32;20217;-76
2021/06/13 02:57:16;;;;;;;18.77;7.70;;;;;;;;;;4423868;32;20232;-76
2021/06/13 02:59:55;;;;;;;21.85;7.20;;;;;;;;;;4423773;32;20221;-76
2021/06/13 03:02:24;;;;;;;16.58;7.37;;;;;;;;;;4424917;32;20161;-76
2021/06/13 03:04:50;;;;;;;12.68;6.50;;;;;;;;;;4425441;32;20243;-76
2021/06/13 03:07:17;;;;;;;22.55;8.68;;;;;;;;;;4423344;32;20590;-75
2021/06/13 03:09:42;;;;;;;20.23;8.18;;;;;;;;;;4439385;32;20138;-76
2021/06/13 03:12:08;;;;;;;18.10;7.25;;;;;;;;;;4439586;32;20585;-75
2021/06/13 03:14:35;;;;;;;16.60;7.40;;;;;;;;;;4437155;32;20176;-75
2021/06/13 03:17:01;;;;;;;18.48;7.10;;;;;;;;;;4424277;32;20157;-75
2021/06/13 03:19:27;;;;;;;19.30;7.75;;;;;;;;;;4439071;32;20494;-75
2021/06/13 03:21:52;;;;;;;25.25;8.35;;;;;;;;;;4438446;32;20154;-75
2021/06/13 03:24:19;;;;;;;16.20;7.37;;;;;;;;;;4424425;32;20557;-75
2021/06/13 03:26:45;;;;;;;16.65;7.82;;;;;;;;;;4438070;32;20232;-76
2021/06/13 03:29:11;;;;;;;15.60;7.00;;;;;;;;;;4437445;32;20133;-76
2021/06/13 03:31:36;;;;;;;14.80;6.90;;;;;;;;;;4423311;32;20181;-76
2021/06/13 03:34:02;;;;;;;20.08;7.97;;;;;;;;;;4423928;32;20244;-75
2021/06/13 03:36:28;;;;;;;21.37;7.60;;;;;;;;;;4438658;32;20597;-75
2021/06/13 03:38:54;;;;;;;16.45;7.43;;;;;;;;;;4437720;32;20133;-75
2021/06/13 03:41:21;;;;;;;20.92;8.50;;;;;;;;;;4437916;32;20152;-75
2021/06/13 03:43:47;;;;;;;16.90;7.60;;;;;;;;;;4424720;32;20613;-76
2021/06/13 03:46:13;;;;;;;14.60;6.57;;;;;;;;;;4424170;32;20153;-76
2021/06/13 03:48:38;;;;;;;19.45;8.20;;;;;;;;;;4423068;32;20529;-76
2021/06/13 03:51:04;;;;;;;16.10;7.28;;;;;;;;;;4422276;32;20178;-76
2021/06/13 03:53:29;;;;;;;16.08;6.95;;;;;;;;;;4422052;32;20177;-76
2021/06/13 03:55:58;;;;;;;16.35;7.93;;;;;;;;;;4420824;32;20172;-75
2021/06/13 03:58:25;;;;;;;18.10;7.30;;;;;;;;;;4421175;32;20192;-75
2021/06/13 04:00:50;;;;;;;20.33;7.80;;;;;;;;;;4421612;32;20138;-75
2021/06/13 04:03:16;;;;;;;18.25;7.18;;;;;;;;;;4421299;32;20432;-75
2021/06/13 04:05:41;;;;;;;16.77;7.60;;;;;;;;;;4419406;32;20637;-74
2021/06/13 04:08:07;;;;;;;15.18;7.35;;;;;;;;;;4422570;32;20531;-75
2021/06/13 04:10:32;;;;;;;16.42;6.95;;;;;;;;;;4420603;32;20530;-76
2021/06/13 04:12:58;;;;;;;15.63;7.85;;;;;;;;;;4420280;32;20200;-76
2021/06/13 04:15:24;;;;;;;18.12;6.75;;;;;;;;;;4421901;32;20130;-76
2021/06/13 04:17:50;;;;;;;16.83;6.18;;;;;;;;;;4423103;32;20158;-75
2021/06/13 04:20:16;;;;;;;18.35;6.15;;;;;;;;;;4419634;32;20322;-75
2021/06/13 04:22:41;;;;;;;17.10;7.22;;;;;;;;;;4419731;32;20208;-76
2021/06/13 04:25:08;;;;;;;17.17;6.93;;;;;;;;;;4423240;32;20420;-75
2021/06/13 04:27:34;;;;;;;15.60;7.12;;;;;;;;;;4420217;32;20184;-75
2021/06/13 04:30:00;;;;;;;20.65;7.37;;;;;;;;;;4421340;32;20146;-76
2021/06/13 04:32:25;;;;;;;15.35;6.82;;;;;;;;;;4422390;32;20547;-75
2021/06/13 04:34:50;;;;;;;17.52;7.40;;;;;;;;;;4421130;32;20163;-76
2021/06/13 04:37:17;;;;;;;13.70;5.87;;;;;;;;;;4422172;32;20145;-76
2021/06/13 04:39:43;;;;;;;20.60;6.35;;;;;;;;;;4419469;32;20193;-75
2021/06/13 04:42:08;;;;;;;16.37;6.37;;;;;;;;;;4421011;32;20232;-75
2021/06/13 04:44:34;;;;;;;16.73;6.70;;;;;;;;;;4421446;32;20191;-75
2021/06/13 04:46:59;;;;;;;15.63;6.28;;;;;;;;;;4419028;32;20481;-75
2021/06/13 04:49:24;;;;;;;15.52;5.80;;;;;;;;;;4421233;32;20158;-75
2021/06/13 04:51:51;;;;;;;14.32;6.53;;;;;;;;;;4437113;32;20178;-75
2021/06/13 04:54:36;;;;;;;16.92;6.80;;;;;;;;;;4421948;32;20291;-74
2021/06/13 04:57:04;;;;;;;14.40;5.97;;;;;;;;;;4412631;32;20628;-74
2021/06/13 04:59:30;;;;;;;14.93;6.12;;;;;;;;;;4430860;32;20192;-73
2021/06/13 05:01:55;;;;;;;15.03;5.83;;;;;;;;;;4432758;32;20667;-73
2021/06/13 05:04:20;;;;;;;13.45;6.25;;;;;;;;;;4432681;32;20245;-74
2021/06/13 05:06:45;;;;;;;12.53;5.50;;;;;;;;;;4434721;32;20543;-74
2021/06/13 05:09:11;;;;;;;15.38;6.12;;;;;;;;;;4403144;32;20273;-73
2021/06/13 05:11:37;;;;;;;12.75;5.10;;;;;;;;;;4418054;32;20196;-72
2021/06/13 05:14:02;;;;;;;16.10;5.47;;;;;;;;;;4416131;32;20578;-73
2021/06/13 05:16:27;;;;;;;15.32;5.32;;;;;;;;;;4416437;32;20200;-74
2021/06/13 05:18:52;;;;;;;13.55;5.50;;;;;;;;;;4416125;32;20213;-74
2021/06/13 05:21:18;;;;;;;12.90;5.13;;;;;;;;;;4417872;32;20613;-73
2021/06/13 05:23:43;;;;;;;10.65;4.70;;;;;;;;;;4415776;32;20233;-73
2021/06/13 05:26:08;;;;;;;10.88;4.85;;;;;;;;;;4402842;32;20292;-73
2021/06/13 05:28:33;;;;;;;14.35;4.72;;;;;;;;;;4417253;32;20513;-73
2021/06/13 05:30:59;;;;;;;14.98;5.53;;;;;;;;;;4432029;32;20442;-73
2021/06/13 05:33:24;;;;;;;13.15;4.90;;;;;;;;;;4416436;32;20166;-73
2021/06/13 05:35:50;;;;;;;10.85;4.55;;;;;;;;;;4419483;32;20169;-74
2021/06/13 05:38:15;;;;;;;12.50;4.50;;;;;;;;;;4418094;32;20169;-73
2021/06/13 05:40:41;;;;;;;9.93;4.22;;;;;;;;;;4417807;32;20811;-74
2021/06/13 05:43:09;;;;;;;9.88;4.40;;;;;;;;;;4427418;32;20137;-73
2021/06/13 05:45:36;;;;;;;10.05;4.28;;;;;;;;;;4411613;32;20646;-74
2021/06/13 05:48:01;;;;;;;10.00;4.15;;;;;;;;;;4424748;32;20158;-72
2021/06/13 05:50:27;;;;;;;15.00;4.62;;;;;;;;;;4408195;32;20238;-74
2021/06/13 05:52:52;;;;;;;10.52;4.60;;;;;;;;;;4408758;32;20617;-74
2021/06/13 05:55:18;;;;;;;12.98;4.70;;;;;;;;;;4421913;32;20189;-73
2021/06/13 05:57:44;;;;;;;11.27;4.62;;;;;;;;;;4431755;32;20145;-74
2021/06/13 06:00:09;;;;;;;10.40;4.03;;;;;;;;;;4397960;32;20256;-74
2021/06/13 06:02:35;;;;;;;12.02;4.82;;;;;;;;;;4391316;32;21167;-74
2021/06/13 06:05:00;;;;;;;10.45;4.10;;;;;;;;;;4403083;32;20170;-74
2021/06/13 06:07:25;;;;;;;16.85;4.72;;;;;;;;;;4400815;32;20266;-73
2021/06/13 06:09:51;;;;;;;12.75;4.72;;;;;;;;;;4387824;32;20199;-73
2021/06/13 06:12:16;;;;;;;9.77;4.53;;;;;;;;;;4387542;32;20170;-73
2021/06/13 06:14:41;;;;;;;14.30;4.62;;;;;;;;;;4401607;32;20165;-73
2021/06/13 06:17:07;;;;;;;13.18;4.47;;;;;;;;;;4416850;32;20823;-73
2021/06/13 06:19:32;;;;;;;10.77;3.67;;;;;;;;;;4401848;32;20181;-74
2021/06/13 06:21:57;;;;;;;10.05;4.47;;;;;;;;;;4402161;32;20318;-74
2021/06/13 06:24:22;;;;;;;9.93;4.37;;;;;;;;;;4418487;32;20141;-74
2021/06/13 06:26:48;;;;;;;11.07;4.37;;;;;;;;;;4417223;32;20234;-74
2021/06/13 06:29:13;;;;;;;12.27;4.28;;;;;;;;;;4401531;32;20261;-74
2021/06/13 06:31:38;;;;;;;16.45;4.95;;;;;;;;;;4418192;32;20164;-74
2021/06/13 06:34:04;;;;;;;10.98;4.32;;;;;;;;;;4415917;32;20652;-73
2021/06/13 06:36:29;;;;;;;12.65;4.47;;;;;;;;;;4416373;32;20165;-74
2021/06/13 06:38:54;;;;;;;11.48;4.55;;;;;;;;;;4401115;32;20174;-73
2021/06/13 06:41:19;;;;;;;16.37;4.57;;;;;;;;;;4411339;32;21198;-74
2021/06/13 06:43:44;;;;;;;9.38;4.20;;;;;;;;;;4413956;32;20237;-73
2021/06/13 06:46:09;;;;;;;15.00;4.80;;;;;;;;;;4396256;32;20272;-74
2021/06/13 06:48:35;;;;;;;8.93;4.07;;;;;;;;;;4415883;32;21135;-74
2021/06/13 06:51:00;;;;;;;14.90;4.80;;;;;;;;;;4398793;32;20277;-73
2021/06/13 06:53:25;;;;;;;10.70;4.05;;;;;;;;;;4399618;32;20257;-73
2021/06/13 06:55:50;;;;;;;12.60;4.60;;;;;;;;;;4399932;32;20292;-73
2021/06/13 06:58:15;;;;;;;13.52;5.65;;;;;;;;;;4401035;32;20241;-73
2021/06/13 07:00:40;;;;;;;14.50;4.40;;;;;;;;;;4400866;32;20141;-74
2021/06/13 07:03:11;;;;;;;14.30;4.82;;;;;;;;;;4400889;32;20241;-73
2021/06/13 07:05:36;;;;;;;10.50;4.35;;;;;;;;;;4400066;32;20294;-73
2021/06/13 07:08:01;;;;;;;13.40;4.50;;;;;;;;;;4403155;32;20169;-73
2021/06/13 07:10:26;;;;;;;13.70;4.95;;;;;;;;;;4410447;32;20150;-75
2021/06/13 07:12:51;;;;;;;11.73;4.67;;;;;;;;;;4414864;32;20479;-74
2021/06/13 07:15:18;;;;;;;11.25;4.62;;;;;;;;;;4411365;32;20382;-74
2021/06/13 07:17:44;;;;;;;15.13;5.50;;;;;;;;;;4417751;32;20246;-73
2021/06/13 07:20:09;;;;;;;11.90;4.75;;;;;;;;;;4411723;32;20196;-74
2021/06/13 07:22:35;;;;;;;12.93;5.78;;;;;;;;;;4408712;32;20182;-73
2021/06/13 07:25:05;;;;;;;13.18;4.32;;;;;;;;;;4407923;32;20675;-74
2021/06/13 07:27:30;;;;;;;14.32;5.03;;;;;;;;;;4405860;32;20236;-74
2021/06/13 07:29:55;;;;;;;16.30;5.62;;;;;;;;;;4395411;32;21136;-74
2021/06/13 07:32:21;;;;;;;14.27;5.60;;;;;;;;;;4396114;32;20241;-74
2021/06/13 07:34:46;;;;;;;13.63;6.03;;;;;;;;;;4402313;32;20160;-74
2021/06/13 07:37:12;;;;;;;12.37;4.60;;;;;;;;;;4400977;32;20315;-74
2021/06/13 07:39:37;;;;;;;11.38;4.55;;;;;;;;;;4402107;32;20191;-74
2021/06/13 07:42:03;;;;;;;9.75;4.87;;;;;;;;;;4401450;32;20201;-74
2021/06/13 07:44:29;;;;;;;11.63;4.22;;;;;;;;;;4402947;32;20307;-74
2021/06/13 07:46:56;;;;;;;11.23;4.80;;;;;;;;;;4404664;32;20138;-73
2021/06/13 07:49:21;;;;;;;12.60;4.20;;;;;;;;;;4402445;32;20143;-74
2021/06/13 07:51:46;;;;;;;11.50;5.10;;;;;;;;;;4416606;32;20164;-74
2021/06/13 07:54:12;;;;;;;12.05;3.85;;;;;;;;;;4405512;32;20660;-73
2021/06/13 07:56:37;;;;;;;10.90;3.85;;;;;;;;;;4411948;32;20145;-74
2021/06/13 07:59:02;;;;;;;9.15;3.58;;;;;;;;;;4402167;32;20275;-74
2021/06/13 08:01:27;;;;;;;11.60;3.83;;;;;;;;;;4414794;32;20480;-74
2021/06/13 08:03:54;;;;;;;9.50;3.65;;;;;;;;;;4397279;32;20272;-74
2021/06/13 08:06:19;;;;;;;7.95;4.37;;;;;;;;;;4403539;32;20289;-74
2021/06/13 08:08:44;;;;;;;8.37;4.10;;;;;;;;;;4398802;32;20623;-74
2021/06/13 08:11:09;;;;;;;9.75;4.22;;;;;;;;;;4417840;32;20241;-74
2021/06/13 08:13:35;;;;;;;9.77;3.72;;;;;;;;;;4417173;32;20167;-74
2021/06/13 08:16:00;;;;;;;9.25;4.00;;;;;;;;;;4411751;32;20494;-74
2021/06/13 08:18:26;;;;;;;10.70;4.37;;;;;;;;;;4415674;32;20150;-74
2021/06/13 08:20:51;;;;;;;10.30;3.97;;;;;;;;;;4415760;32;20527;-75
2021/06/13 08:23:16;;;;;;;10.88;4.78;;;;;;;;;;4416355;32;20673;-74
2021/06/13 08:25:42;;;;;;;9.60;4.15;;;;;;;;;;4418472;32;20142;-74
2021/06/13 08:28:07;;;;;;;9.32;4.15;;;;;;;;;;4416153;32;20214;-74
2021/06/13 08:30:32;;;;;;;11.48;4.57;;;;;;;;;;4402854;32;21005;-74
2021/06/13 08:32:58;;;;;;;10.88;4.72;;;;;;;;;;4416953;32;20476;-75
2021/06/13 08:35:24;;;;;;;11.25;4.20;;;;;;;;;;4401372;32;20226;-74
2021/06/13 08:37:49;;;;;;;10.93;4.12;;;;;;;;;;4414968;32;20141;-74
2021/06/13 08:40:15;;;;;;;10.93;4.05;;;;;;;;;;4416806;32;20231;-75
2021/06/13 08:42:41;;;;;;;11.27;4.60;;;;;;;;;;4402325;32;20173;-75
2021/06/13 08:45:08;;;;;;;12.40;4.22;;;;;;;;;;4402342;32;20193;-73
2021/06/13 08:47:34;;;;;;;10.90;3.75;;;;;;;;;;4413948;32;20141;-72
2021/06/13 08:49:59;;;;;;;8.65;3.92;;;;;;;;;;4412784;32;20196;-72
2021/06/13 08:52:24;;;;;;;9.65;3.58;;;;;;;;;;4412612;32;20471;-71
2021/06/13 08:54:50;;;;;;;8.38;3.72;;;;;;;;;;4412699;32;20249;-73
2021/06/13 08:57:15;;;;;;;8.88;4.20;;;;;;;;;;4410564;32;21118;-72
2021/06/13 08:59:42;;;;;;;10.57;4.18;;;;;;;;;;4413848;32;20165;-72
2021/06/13 09:02:07;;;;;;;11.63;4.43;;;;;;;;;;4416114;32;20191;-71
2021/06/13 09:04:34;;;;;;;10.60;4.07;;;;;;;;;;4416064;32;20638;-71
2021/06/13 09:06:59;;;;;;;8.32;4.00;;;;;;;;;;4398436;32;20230;-74
2021/06/13 09:09:29;;;;;;;9.82;3.97;;;;;;;;;;4412388;32;21021;-71
2021/06/13 09:11:58;;;;;;;8.65;3.65;;;;;;;;;;4397601;32;20145;-71
2021/06/13 09:14:24;;;;;;;8.43;4.20;;;;;;;;;;4384071;32;20609;-71
2021/06/13 09:16:49;;;;;;;11.10;4.12;;;;;;;;;;4396987;32;20231;-71
2021/06/13 09:19:14;;;;;;;8.07;4.37;;;;;;;;;;4411625;32;20187;-72
2021/06/13 09:21:40;;;;;;;10.65;3.90;;;;;;;;;;4388585;32;20268;-71
2021/06/13 09:24:27;;;;;;;9.70;3.60;;;;;;;;;;4390950;32;20189;-71
2021/06/13 09:26:53;;;;;;;9.05;3.70;;;;;;;;;;4396428;32;20272;-71
2021/06/13 09:29:19;;;;;;;8.98;3.42;;;;;;;;;;4410687;32;20181;-71
2021/06/13 09:31:44;;;;;;;8.45;3.30;;;;;;;;;;4412909;32;20195;-72
2021/06/13 09:34:16;;;;;;;5.78;2.87;;;;;;;;;;4415097;32;20142;-71
2021/06/13 09:36:42;;;;;;;6.15;2.60;;;;;;;;;;4411583;32;20164;-72
2021/06/13 09:39:09;;;;;;;9.18;2.90;;;;;;;;;;4410064;32;20137;-71
2021/06/13 09:41:35;;;;;;;10.10;3.20;;;;;;;;;;4396583;32;20168;-73
2021/06/13 09:44:02;;;;;;;6.43;2.87;;;;;;;;;;4411002;32;20150;-73
2021/06/13 09:46:32;;;;;;;6.20;2.78;;;;;;;;;;4411397;32;20226;-72
2021/06/13 09:49:04;;;;;;;7.15;2.67;;;;;;;;;;4409749;32;20146;-73
2021/06/13 09:51:33;;;;;;;7.32;3.10;;;;;;;;;;4408372;32;20726;-72
2021/06/13 09:53:58;;;;;;;6.68;2.50;;;;;;;;;;4409804;32;20153;-73
2021/06/13 09:56:28;;;;;;;8.02;2.72;;;;;;;;;;4412363;32;20138;-73
2021/06/13 09:58:56;;;;;;;6.87;2.90;;;;;;;;;;4413342;32;20150;-72
2021/06/13 10:01:24;;;;;;;6.57;2.65;;;;;;;;;;4396912;32;20712;-73
2021/06/13 10:03:49;;;;;;;10.95;3.25;;;;;;;;;;4406098;32;20659;-73
2021/06/13 10:06:17;;;;;;;5.87;2.80;;;;;;;;;;4402908;32;20168;-73
2021/06/13 10:08:43;;;;;;;7.18;2.50;;;;;;;;;;4404519;32;20172;-72
2021/06/13 10:11:09;;;;;;;5.75;2.80;;;;;;;;;;4390001;32;20620;-73
2021/06/13 10:13:40;;;;;;;4.87;2.67;;;;;;;;;;4403427;32;20550;-73
2021/06/13 10:16:06;;;;;;;5.57;2.65;;;;;;;;;;4388612;32;20201;-71
2021/06/13 10:18:31;;;;;;;6.32;2.37;;;;;;;;;;4402369;32;20153;-72
2021/06/13 10:21:10;;;;;;;6.25;2.60;;;;;;;;;;4402931;32;20470;-72
2021/06/13 10:23:36;;;;;;;4.72;2.47;;;;;;;;;;4391319;32;20172;-72
2021/06/13 10:26:02;;;;;;;7.50;2.83;;;;;;;;;;4406118;32;20149;-73
2021/06/13 10:28:28;;;;;;;8.00;3.12;;;;;;;;;;4407345;32;20228;-73
2021/06/13 10:30:53;;;;;;;6.50;2.95;;;;;;;;;;4407363;32;20168;-73
2021/06/13 10:33:18;;;;;;;6.82;3.00;;;;;;;;;;4405133;32;20656;-73
2021/06/13 10:35:44;;;;;;;9.50;4.10;;;;;;;;;;4406905;32;20558;-72
2021/06/13 10:38:09;;;;;;;6.28;2.53;;;;;;;;;;4390383;32;20189;-72
2021/06/13 10:40:34;;;;;;;7.90;2.80;;;;;;;;;;4404472;32;20141;-72
2021/06/13 10:43:00;;;;;;;5.93;3.00;;;;;;;;;;4406832;32;20978;-72
2021/06/13 10:45:31;;;;;;;6.80;2.58;;;;;;;;;;4406553;32;20335;-72
2021/06/13 10:48:04;;;;;;;7.28;2.87;;;;;;;;;;4409253;32;20607;-73
2021/06/13 10:50:33;;;;;;;6.07;3.35;;;;;;;;;;4407196;32;20189;-73
2021/06/13 10:53:00;;;;;;;6.25;2.70;;;;;;;;;;4406902;32;20794;-72
2021/06/13 10:55:44;;;;;;;6.72;2.90;;;;;;;;;;4395146;32;20203;-73
2021/06/13 10:58:09;;;;;;;7.35;2.85;;;;;;;;;;4410190;32;20624;-72
2021/06/13 11:00:34;;;;;;;6.28;2.60;;;;;;;;;;4409356;32;20145;-73
2021/06/13 11:03:00;;;;;;;6.83;2.47;;;;;;;;;;4407430;32;20176;-73
2021/06/13 11:05:39;;;;;;;6.82;2.53;;;;;;;;;;4394602;32;20705;-72
2021/06/13 11:08:04;;;;;;;6.12;2.33;;;;;;;;;;4406367;32;20752;-74
2021/06/13 11:10:31;;;;;;;6.50;2.70;;;;;;;;;;4392493;32;20165;-73
2021/06/13 11:13:00;;;;;;;6.32;2.67;;;;;;;;;;4408589;32;20157;-74
2021/06/13 11:15:25;;;;;;;5.25;2.58;;;;;;;;;;4412273;32;20173;-72
2021/06/13 11:17:50;;;;;;;4.37;2.50;;;;;;;;;;4412529;32;20161;-74
2021/06/13 11:20:24;;;;;;;6.40;2.62;;;;;;;;;;4399242;32;20192;-74
2021/06/13 11:22:49;;;;;;;6.37;3.08;;;;;;;;;;4413494;32;20137;-73
2021/06/13 11:25:19;;;;;;;8.07;2.83;;;;;;;;;;4398360;32;20233;-72
2021/06/13 11:28:03;;;;;;;6.50;3.22;;;;;;;;;;4413402;32;20157;-72
2021/06/13 11:30:29;;;;;;;5.30;2.60;;;;;;;;;;4414077;32;20625;-72
2021/06/13 11:32:56;;;;;;;5.72;1.95;;;;;;;;;;4412642;32;20141;-72
2021/06/13 11:35:28;;;;;;;6.50;2.20;;;;;;;;;;4400346;32;20534;-71
2021/06/13 11:38:09;;;;;;;7.55;2.60;;;;;;;;;;4413900;32;20196;-72
2021/06/13 11:40:38;;;;;;;12.57;9.15;;;;;;;;;;4412417;32;20141;-72
2021/06/13 11:43:14;;;;;;;7.87;2.90;;;;;;;;;;4411492;32;20178;-73
2021/06/13 11:45:54;;;;;;;7.32;2.80;;;;;;;;;;4414938;32;20185;-72
2021/06/13 11:48:21;;;;;;;5.32;2.60;;;;;;;;;;4406815;32;20183;-73
2021/06/13 11:51:04;;;;;;;7.15;2.70;;;;;;;;;;4392535;32;20734;-72
2021/06/13 11:53:53;;;;;;;7.12;2.80;;;;;;;;;;4391735;32;20192;-72
2021/06/13 11:56:36;;;;;;;7.37;2.40;;;;;;;;;;4409240;32;20497;-73
2021/06/13 11:59:11;;;;;;;6.78;2.42;;;;;;;;;;4408242;32;20272;-73
2021/06/13 12:01:37;;;;;;;4.50;2.30;;;;;;;;;;4393763;32;20164;-72
2021/06/13 12:04:07;;;;;;;5.30;2.50;;;;;;;;;;4398821;32;20708;-73
2021/06/13 12:06:34;;;;;;;5.30;2.58;;;;;;;;;;4403009;32;20513;-74
2021/06/13 12:08:59;;;;;;;4.65;2.30;;;;;;;;;;4378767;32;20680;-73
2021/06/13 12:11:27;;;;;;;6.55;2.50;;;;;;;;;;4391839;32;20142;-73
2021/06/13 12:13:52;;;;;;;6.28;2.60;;;;;;;;;;4389974;32;20200;-72
2021/06/13 12:16:17;;;;;;;5.37;2.30;;;;;;;;;;4396299;32;20146;-74
2021/06/13 12:18:57;;;;;;;4.95;2.30;;;;;;;;;;4391071;32;21137;-73
2021/06/13 12:21:25;;;;;;;4.68;2.30;;;;;;;;;;4377945;32;20601;-73
2021/06/13 12:23:57;;;;;;;5.82;2.60;;;;;;;;;;4383095;32;20203;-73
2021/06/13 12:29:26;;;;;;;5.75;2.20;;;;;;;;;;4392800;32;20172;-73
2021/06/13 12:31:51;;;;;;;4.15;2.20;;;;;;;;;;4388075;32;20300;-73
2021/06/13 12:34:20;;;;;;;7.50;2.72;;;;;;;;;;4372519;32;20676;-72
2021/06/13 12:36:52;;;;;;;8.13;2.92;;;;;;;;;;4356020;32;20392;-72
2021/06/13 12:39:25;;;;;;;5.90;2.37;;;;;;;;;;4356506;32;20313;-73
2021/06/13 12:41:50;;;;;;;6.35;2.60;;;;;;;;;;4432734;32;20597;-72
2021/06/13 12:44:15;;;;;;;5.27;2.40;;;;;;;;;;4432934;32;20164;-73
2021/06/13 12:46:40;;;;;;;6.22;2.62;;;;;;;;;;4419783;32;20250;-73
2021/06/13 12:49:06;;;;;;;5.43;2.60;;;;;;;;;;4425494;32;20145;-73
2021/06/13 12:51:33;;;;;;;6.00;2.30;;;;;;;;;;4419096;32;20337;-73
2021/06/13 12:53:59;;;;;;;4.68;2.55;;;;;;;;;;4428320;32;20185;-74
2021/06/13 12:56:24;;;;;;;4.65;2.28;;;;;;;;;;4414007;32;20166;-74
2021/06/13 12:58:49;;;;;;;7.18;2.78;;;;;;;;;;4417087;32;20173;-74
2021/06/13 13:01:15;;;;;;;6.23;2.97;;;;;;;;;;4417314;32;20171;-72
2021/06/13 13:03:41;;;;;;;4.30;2.47;;;;;;;;;;4403581;32;20261;-73
2021/06/13 13:06:07;;;;;;;7.28;3.30;;;;;;;;;;4403135;32;20166;-73
2021/06/13 13:08:43;;;;;;;10.02;2.85;;;;;;;;;;4404087;32;20615;-72
2021/06/13 13:11:09;;;;;;;4.90;2.97;;;;;;;;;;4418062;32;20183;-72
2021/06/13 13:13:39;;;;;;;7.55;3.10;;;;;;;;;;4411135;32;20170;-74
2021/06/13 13:16:18;;;;;;;10.02;3.65;;;;;;;;;;4419970;32;20224;-73
2021/06/13 13:18:43;;;;;;;5.03;2.37;;;;;;;;;;4434251;32;20141;-73
2021/06/13 13:21:08;;;;;;;5.13;2.60;;;;;;;;;;4432423;32;20173;-74
2021/06/13 13:23:41;;;;;;;5.35;2.62;;;;;;;;;;4432754;32;20768;-73
2021/06/13 13:26:06;;;;;;;6.75;3.05;;;;;;;;;;4419781;32;20173;-73
2021/06/13 13:28:33;;;;;;;7.53;3.10;;;;;;;;;;4434141;32;20145;-73
2021/06/13 13:31:00;;;;;;;7.65;2.92;;;;;;;;;;4432372;32;20146;-73
2021/06/13 13:33:26;;;;;;;5.65;2.60;;;;;;;;;;4420478;32;20174;-74
2021/06/13 13:35:51;;;;;;;5.45;3.03;;;;;;;;;;4434358;32;20204;-73
2021/06/13 13:38:18;;;;;;;7.78;2.70;;;;;;;;;;4433663;32;20142;-74
2021/06/13 13:40:49;;;;;;;4.22;2.65;;;;;;;;;;4433221;32;20149;-74
2021/06/13 13:43:15;;;;;;;5.72;2.80;;;;;;;;;;4421771;32;20150;-74
2021/06/13 13:45:41;;;;;;;4.15;2.20;;;;;;;;;;4418519;32;20255;-74
2021/06/13 13:48:11;;;;;;;6.47;2.75;;;;;;;;;;4423668;32;20203;-74
2021/06/13 13:50:48;;;;;;;4.90;2.28;;;;;;;;;;4432034;32;20257;-73
2021/06/13 13:53:15;;;;;;;6.10;2.37;;;;;;;;;;4431442;32;20176;-73
2021/06/13 13:55:47;;;;;;;5.37;2.62;;;;;;;;;;4417815;32;20249;-73
2021/06/13 13:58:14;;;;;;;5.35;2.37;;;;;;;;;;4417451;32;20165;-73
2021/06/13 14:00:39;;;;;;;4.45;2.30;;;;;;;;;;4432328;32;20227;-73
2021/06/13 14:03:04;;;;;;;6.37;2.40;;;;;;;;;;4413596;32;20649;-73
2021/06/13 14:05:30;;;;;;;5.53;2.15;;;;;;;;;;4402374;32;20322;-74
2021/06/13 14:07:55;;;;;;;4.30;2.33;;;;;;;;;;4428873;32;20153;-73
2021/06/13 14:10:20;;;;;;;5.87;2.20;;;;;;;;;;4431849;32;20506;-73
2021/06/13 14:12:45;;;;;;;6.43;2.53;;;;;;;;;;4431679;32;20129;-73
2021/06/13 14:15:13;;;;;;;6.97;2.40;;;;;;;;;;4431969;32;20252;-73
2021/06/13 14:17:38;;;;;;;5.90;2.53;;;;;;;;;;4436719;32;20153;-73
2021/06/13 14:20:05;;;;;;;5.43;2.08;;;;;;;;;;4427203;32;20183;-73
2021/06/13 14:22:31;;;;;;;6.05;2.28;;;;;;;;;;4431580;32;20157;-73
2021/06/13 14:24:56;;;;;;;6.12;2.30;;;;;;;;;;4434604;32;20228;-73
2021/06/13 14:27:22;;;;;;;4.53;2.10;;;;;;;;;;4436875;32;20137;-73
2021/06/13 14:29:47;;;;;;;4.73;2.33;;;;;;;;;;4436296;32;20218;-74
2021/06/13 14:32:12;;;;;;;4.78;2.17;;;;;;;;;;4436395;32;20165;-73
2021/06/13 14:34:37;;;;;;;4.93;2.23;;;;;;;;;;4436428;32;20585;-73
2021/06/13 14:37:02;;;;;;;5.03;2.37;;;;;;;;;;4436395;32;20257;-72